Time;durP1;ratioP1;P1;durP2;ratioP2;P2;SDS_P1;SDS_P2;PMS_P1;PMS_P2;Temp;Humidity;BMP_temperature;BMP_pressure;BME280_temperature;BME280_humidity;BME280_pressure;Samples;Min_cycle;Max_cycle;Signal;HPM_P1;HPM_P2
2022/07/02 00:01:51;;;;;;;1.97;1.20;;;15.90;29.70;;;;;;5054762;28;20183;-69
2022/07/02 00:04:22;;;;;;;1.50;1.10;;;15.90;29.70;;;;;;5054509;28;20683;-69
2022/07/02 00:06:48;;;;;;;2.17;1.27;;;15.80;29.50;;;;;;5044357;28;20449;-69
2022/07/02 00:09:14;;;;;;;1.77;1.07;;;15.70;30.00;;;;;;5048347;28;20854;-69
2022/07/02 00:11:41;;;;;;;1.70;0.90;;;15.80;29.80;;;;;;5034336;28;20504;-69
2022/07/02 00:14:08;;;;;;;1.80;1.50;;;15.70;29.80;;;;;;5034040;28;20947;-69
2022/07/02 00:16:34;;;;;;;1.63;1.13;;;15.70;29.80;;;;;;5034293;28;20472;-69
2022/07/02 00:19:00;;;;;;;2.00;1.20;;;15.60;29.90;;;;;;5032559;28;20431;-70
2022/07/02 00:21:26;;;;;;;1.90;1.37;;;15.50;30.60;;;;;;5034379;28;20417;-70
2022/07/02 00:23:52;;;;;;;2.43;1.30;;;15.50;30.60;;;;;;5034112;28;20433;-70
2022/07/02 00:26:27;;;;;;;2.20;1.20;;;15.30;32.80;;;;;;5032957;28;20187;-70
2022/07/02 00:29:05;;;;;;;2.17;1.60;;;15.00;34.20;;;;;;5033941;28;20677;-70
2022/07/02 00:31:34;;;;;;;1.63;0.80;;;15.00;35.40;;;;;;5034094;28;20425;-70
2022/07/02 00:34:00;;;;;;;3.20;1.33;;;15.00;35.20;;;;;;5034029;28;20445;-70
2022/07/02 00:36:27;;;;;;;4.23;1.20;;;14.90;35.80;;;;;;5033979;28;20824;-70
2022/07/02 00:38:52;;;;;;;1.60;1.00;;;14.90;34.80;;;;;;5033592;28;20786;-68
2022/07/02 00:41:18;;;;;;;1.57;1.20;;;14.80;34.00;;;;;;5034023;28;20417;-71
2022/07/02 00:43:45;;;;;;;1.70;1.07;;;14.70;33.90;;;;;;5033995;28;20213;-70
2022/07/02 00:46:12;;;;;;;2.73;1.50;;;14.70;34.80;;;;;;5033949;28;20269;-70
2022/07/02 00:48:39;;;;;;;1.80;1.20;;;14.60;35.00;;;;;;5032460;28;20437;-69
2022/07/02 00:51:04;;;;;;;1.73;1.10;;;14.50;36.10;;;;;;5034406;28;20442;-69
2022/07/02 00:53:30;;;;;;;1.57;0.93;;;14.60;35.40;;;;;;5033923;28;20473;-70
2022/07/02 00:55:57;;;;;;;1.90;0.90;;;14.50;36.20;;;;;;5033693;28;20229;-71
2022/07/02 00:58:23;;;;;;;2.37;1.10;;;14.40;36.90;;;;;;5033441;28;20273;-70
2022/07/02 01:00:49;;;;;;;1.73;1.37;;;14.30;37.70;;;;;;5033435;28;20438;-70
2022/07/02 01:03:17;;;;;;;2.67;1.43;;;14.30;37.40;;;;;;5033400;28;20497;-70
2022/07/02 01:05:45;;;;;;;2.30;1.80;;;14.20;38.00;;;;;;5033342;28;20197;-71
2022/07/02 01:10:58;;;;;;;1.70;0.87;;;14.10;39.80;;;;;;5033383;28;20479;-72
2022/07/02 01:13:25;;;;;;;1.73;0.93;;;14.20;37.70;;;;;;5031846;28;20455;-71
2022/07/02 01:15:51;;;;;;;1.70;1.20;;;14.20;37.50;;;;;;5033160;28;20214;-70
2022/07/02 01:18:19;;;;;;;4.20;1.23;;;14.10;37.40;;;;;;5032922;28;20805;-70
2022/07/02 01:20:45;;;;;;;1.90;1.20;;;14.00;37.40;;;;;;5033186;28;20255;-70
2022/07/02 01:23:11;;;;;;;1.90;1.17;;;14.00;38.50;;;;;;5033040;28;20489;-70
2022/07/02 01:25:36;;;;;;;2.00;1.30;;;14.00;38.00;;;;;;5032977;28;20423;-70
2022/07/02 01:28:02;;;;;;;1.70;1.30;;;13.90;37.60;;;;;;5032250;28;20572;-70
2022/07/02 01:30:28;;;;;;;2.33;1.40;;;13.80;37.90;;;;;;5033066;28;20188;-70
2022/07/02 01:32:53;;;;;;;2.67;1.50;;;13.70;39.90;;;;;;5032912;28;20207;-70
2022/07/02 01:35:19;;;;;;;2.70;1.77;;;13.70;39.50;;;;;;5032875;28;20224;-69
2022/07/02 01:37:45;;;;;;;2.33;1.30;;;13.70;39.50;;;;;;5032824;28;20209;-69
2022/07/02 01:40:10;;;;;;;2.17;1.33;;;13.60;41.00;;;;;;5032506;28;20258;-70
2022/07/02 01:42:36;;;;;;;3.23;1.80;;;13.50;40.30;;;;;;5032773;28;20176;-70
2022/07/02 01:45:03;;;;;;;3.07;1.67;;;13.50;40.40;;;;;;5032676;28;20179;-71
2022/07/02 01:47:29;;;;;;;2.90;1.83;;;13.50;40.00;;;;;;5032629;28;20465;-70
2022/07/02 01:49:54;;;;;;;2.23;1.60;;;13.40;41.60;;;;;;5033607;28;20434;-69
2022/07/02 01:52:20;;;;;;;2.77;1.60;;;13.40;41.30;;;;;;5031200;28;20190;-69
2022/07/02 01:54:46;;;;;;;2.80;1.27;;;13.30;41.10;;;;;;5031234;28;20551;-69
2022/07/02 01:57:13;;;;;;;2.17;1.33;;;13.30;41.10;;;;;;5032636;28;20185;-69
2022/07/02 01:59:39;;;;;;;2.17;1.10;;;13.10;42.40;;;;;;5033083;28;20500;-67
2022/07/02 02:02:05;;;;;;;2.43;1.67;;;13.10;41.70;;;;;;5046254;28;20458;-68
2022/07/02 02:04:31;;;;;;;3.17;1.87;;;13.20;41.20;;;;;;5053597;28;20214;-68
2022/07/02 02:06:57;;;;;;;2.80;1.90;;;13.10;42.40;;;;;;5052302;28;20421;-68
2022/07/02 02:09:22;;;;;;;2.33;1.90;;;13.00;43.30;;;;;;5052706;28;20471;-67
2022/07/02 02:11:48;;;;;;;4.17;1.47;;;13.00;42.50;;;;;;5052966;28;20175;-68
2022/07/02 02:14:14;;;;;;;1.53;1.10;;;13.10;42.00;;;;;;5054269;28;20230;-68
2022/07/02 02:16:39;;;;;;;7.10;2.53;;;13.10;41.30;;;;;;5054080;28;20237;-69
2022/07/02 02:19:05;;;;;;;2.77;2.00;;;13.10;41.40;;;;;;5054223;28;20216;-69
2022/07/02 02:21:31;;;;;;;3.67;1.87;;;13.20;41.60;;;;;;5053807;28;20182;-69
2022/07/02 02:23:58;;;;;;;3.10;2.17;;;13.10;41.30;;;;;;5053912;28;20516;-67
2022/07/02 02:26:24;;;;;;;2.10;1.47;;;13.10;41.60;;;;;;5054509;28;20214;-68
2022/07/02 02:28:50;;;;;;;2.40;1.33;;;13.00;41.20;;;;;;5054109;28;20417;-68
2022/07/02 02:31:15;;;;;;;3.30;1.87;;;13.00;41.50;;;;;;5053081;28;20417;-68
2022/07/02 02:33:41;;;;;;;3.50;1.77;;;12.80;43.30;;;;;;5052878;28;20869;-68
2022/07/02 02:36:08;;;;;;;2.70;1.97;;;12.80;42.70;;;;;;5053018;28;20297;-67
2022/07/02 02:38:36;;;;;;;3.23;2.60;;;12.80;42.10;;;;;;5052160;28;20522;-68
2022/07/02 02:41:05;;;;;;;3.30;2.70;;;12.80;43.80;;;;;;5052711;28;20486;-68
2022/07/02 02:43:34;;;;;;;2.67;2.23;;;12.60;45.50;;;;;;5052326;28;20568;-68
2022/07/02 02:46:01;;;;;;;3.87;3.13;;;12.70;44.60;;;;;;5053028;28;20413;-68
2022/07/02 02:48:27;;;;;;;3.80;2.80;;;12.60;44.40;;;;;;5052464;28;20417;-68
2022/07/02 02:50:53;;;;;;;2.50;2.30;;;12.70;44.80;;;;;;5052761;28;20417;-68
2022/07/02 02:53:18;;;;;;;4.00;2.73;;;12.70;43.40;;;;;;5052817;28;20927;-68
2022/07/02 02:55:44;;;;;;;5.53;2.97;;;12.70;43.70;;;;;;5054833;28;20642;-69
2022/07/02 02:58:09;;;;;;;3.80;2.83;;;12.70;43.70;;;;;;5055009;28;20277;-69
2022/07/02 03:00:35;;;;;;;5.40;2.37;;;12.60;43.60;;;;;;5055294;28;20185;-69
2022/07/02 03:03:01;;;;;;;2.63;1.93;;;12.70;43.40;;;;;;5052498;28;20256;-68
2022/07/02 03:05:26;;;;;;;5.10;2.73;;;12.70;42.70;;;;;;5052219;28;20629;-68
2022/07/02 03:07:52;;;;;;;3.20;2.43;;;12.50;46.00;;;;;;5052414;28;20224;-68
2022/07/02 03:10:18;;;;;;;3.00;2.40;;;12.50;47.60;;;;;;5051909;28;20186;-69
2022/07/02 03:12:43;;;;;;;3.37;2.60;;;12.50;47.50;;;;;;5052935;28;20447;-69
2022/07/02 03:15:09;;;;;;;4.00;2.70;;;12.50;49.10;;;;;;5052502;28;20660;-68
2022/07/02 03:17:35;;;;;;;2.40;2.03;;;12.50;43.50;;;;;;5052535;28;20239;-68
2022/07/02 03:20:01;;;;;;;4.03;2.53;;;12.50;43.20;;;;;;5052203;28;20420;-68
2022/07/02 03:22:26;;;;;;;3.30;2.30;;;12.50;43.00;;;;;;5052496;28;20178;-68
2022/07/02 03:24:52;;;;;;;3.20;2.90;;;;;;;;;;5051104;28;20183;-67
2022/07/02 03:27:18;;;;;;;3.60;2.30;;;12.60;42.80;;;;;;5052382;28;20232;-68
2022/07/02 03:29:43;;;;;;;3.20;2.87;;;12.70;42.60;;;;;;5053175;28;20426;-67
2022/07/02 03:32:09;;;;;;;2.63;2.03;;;12.60;42.00;;;;;;5052485;28;20179;-67
2022/07/02 03:34:34;;;;;;;3.47;2.97;;;12.50;42.50;;;;;;5052533;28;20211;-68
2022/07/02 03:37:00;;;;;;;3.30;3.00;;;12.50;42.20;;;;;;5051182;28;20226;-68
2022/07/02 03:39:25;;;;;;;4.00;2.53;;;12.40;43.40;;;;;;5052006;28;20238;-68
2022/07/02 03:41:51;;;;;;;3.20;2.27;;;12.40;43.40;;;;;;5051490;28;20189;-68
2022/07/02 03:44:17;;;;;;;3.13;2.00;;;12.40;43.40;;;;;;5052886;28;20202;-68
2022/07/02 03:46:42;;;;;;;3.63;3.07;;;12.30;43.40;;;;;;5052696;28;20186;-68
2022/07/02 03:49:08;;;;;;;3.70;2.20;;;12.30;43.90;;;;;;5051505;28;20424;-67
2022/07/02 03:51:33;;;;;;;4.53;3.90;;;12.40;43.40;;;;;;5057714;28;20197;-68
2022/07/02 03:53:59;;;;;;;3.17;2.90;;;12.40;43.40;;;;;;5058081;28;20746;-68
2022/07/02 03:56:24;;;;;;;5.30;3.40;;;12.50;42.90;;;;;;5058451;28;20742;-68
2022/07/02 03:58:50;;;;;;;2.83;2.40;;;12.50;43.30;;;;;;5057796;28;20575;-66
2022/07/02 04:01:16;;;;;;;3.30;3.00;;;12.50;43.50;;;;;;5057506;28;20656;-67
2022/07/02 04:03:42;;;;;;;4.00;3.00;;;12.50;43.50;;;;;;5068856;23;20319;-67
2022/07/02 04:06:08;;;;;;;5.00;3.53;;;;;;;;;;5034774;28;20209;-67
2022/07/02 04:08:33;;;;;;;3.40;2.90;;;12.20;45.50;;;;;;5034193;28;20442;-67
2022/07/02 04:10:59;;;;;;;6.17;4.00;;;12.10;47.40;;;;;;5034739;28;20471;-67
2022/07/02 04:13:24;;;;;;;5.33;4.23;;;12.10;48.20;;;;;;5040490;28;20231;-67
2022/07/02 04:15:50;;;;;;;4.40;3.70;;;11.90;49.10;;;;;;5054476;28;20244;-67
2022/07/02 04:18:16;;;;;;;5.40;4.10;;;11.90;50.90;;;;;;5054162;28;20225;-67
2022/07/02 04:20:41;;;;;;;4.80;3.70;;;12.00;50.80;;;;;;5054296;28;20505;-67
2022/07/02 04:23:07;;;;;;;5.20;4.70;;;12.20;50.10;;;;;;5054203;28;20222;-68
2022/07/02 04:25:32;;;;;;;4.90;3.70;;;12.40;49.60;;;;;;5052838;28;20596;-67
2022/07/02 04:27:58;;;;;;;5.37;4.77;;;12.50;48.60;;;;;;5053804;28;20229;-67
2022/07/02 04:30:24;;;;;;;5.80;4.80;;;12.30;46.30;;;;;;5054077;28;20190;-67
2022/07/02 04:32:49;;;;;;;4.77;4.37;;;12.50;50.50;;;;;;5054051;28;20182;-68
2022/07/02 04:35:15;;;;;;;5.00;3.93;;;12.40;46.50;;;;;;5053949;28;20209;-67
2022/07/02 04:37:41;;;;;;;5.93;4.40;;;12.30;48.60;;;;;;5053813;28;20417;-68
2022/07/02 04:40:08;;;;;;;8.07;4.27;;;12.40;47.10;;;;;;5053505;28;20175;-67
2022/07/02 04:42:33;;;;;;;4.03;3.10;;;12.30;48.40;;;;;;5053594;28;20182;-67
2022/07/02 04:44:59;;;;;;;6.00;4.23;;;12.30;48.70;;;;;;5053944;28;20436;-68
2022/07/02 04:47:24;;;;;;;5.27;4.63;;;12.40;49.20;;;;;;5053703;28;20261;-68
2022/07/02 04:49:50;;;;;;;3.93;3.53;;;12.50;48.60;;;;;;5053574;28;20550;-68
2022/07/02 04:52:15;;;;;;;4.10;3.70;;;12.60;48.70;;;;;;5053573;28;20268;-68
2022/07/02 04:54:41;;;;;;;6.23;3.63;;;12.80;48.90;;;;;;5053914;28;20669;-68
2022/07/02 04:57:07;;;;;;;4.97;3.80;;;13.30;50.90;;;;;;5053403;28;20258;-68
2022/07/02 04:59:33;;;;;;;5.27;3.00;;;14.50;48.40;;;;;;5053228;28;20265;-68
2022/07/02 05:01:59;;;;;;;5.67;2.80;;;16.00;41.60;;;;;;5052736;28;20500;-68
2022/07/02 05:04:26;;;;;;;4.70;2.57;;;16.10;29.50;;;;;;5053271;28;20500;-69
2022/07/02 05:06:51;;;;;;;3.73;3.03;;;17.40;29.70;;;;;;5053527;28;20587;-68
2022/07/02 05:09:17;;;;;;;4.50;3.37;;;19.50;27.20;;;;;;5053030;28;20601;-68
2022/07/02 05:11:43;;;;;;;7.27;6.77;;;21.50;18.60;;;;;;5053245;28;20413;-68
2022/07/02 05:14:08;;;;;;;6.83;6.43;;;20.30;15.10;;;;;;5053258;28;20293;-68
2022/07/02 05:16:34;;;;;;;8.23;7.83;;;20.50;19.40;;;;;;5053299;28;20206;-70
2022/07/02 05:19:00;;;;;;;9.90;9.40;;;22.60;15.10;;;;;;5052916;28;20549;-69
2022/07/02 05:21:25;;;;;;;11.83;11.23;;;24.10;14.90;;;;;;5053063;28;20187;-68
2022/07/02 05:23:51;;;;;;;14.30;13.50;;;25.30;13.60;;;;;;5052952;28;20225;-69
2022/07/02 05:26:19;;;;;;;13.33;12.73;;;26.40;8.60;;;;;;5051726;28;20649;-69
2022/07/02 05:28:45;;;;;;;14.27;13.57;;;26.90;7.80;;;;;;5052899;28;20181;-69
2022/07/02 05:31:10;;;;;;;14.03;13.43;;;28.10;6.50;;;;;;5052997;28;20421;-69
2022/07/02 05:33:36;;;;;;;14.90;14.07;;;28.40;4.20;;;;;;5053050;28;20245;-69
2022/07/02 05:36:01;;;;;;;15.10;14.50;;;28.90;3.70;;;;;;5053059;28;20206;-70
2022/07/02 05:38:27;;;;;;;15.40;14.50;;;28.60;1.20;;;;;;5052479;28;20188;-69
2022/07/02 05:40:53;;;;;;;14.93;14.27;;;28.10;3.30;;;;;;5052796;28;20179;-69
2022/07/02 05:43:18;;;;;;;14.60;14.10;;;28.80;3.70;;;;;;5052588;28;20210;-70
2022/07/02 05:45:44;;;;;;;16.17;15.37;;;30.30;2.60;;;;;;5052832;28;20194;-69
2022/07/02 05:48:09;;;;;;;16.63;15.57;;;31.50;1.00;;;;;;5052251;28;20225;-69
2022/07/02 05:50:35;;;;;;;15.70;15.10;;;31.60;1.00;;;;;;5052638;28;20183;-69
2022/07/02 05:53:00;;;;;;;16.50;15.87;;;31.10;1.00;;;;;;5052540;28;20178;-70
2022/07/02 05:55:26;;;;;;;16.30;15.60;;;31.10;1.00;;;;;;5051041;28;20210;-69
2022/07/02 05:57:51;;;;;;;14.50;13.90;;;30.40;1.00;;;;;;5051041;28;20274;-67
2022/07/02 06:00:17;;;;;;;15.47;14.77;;;28.70;1.30;;;;;;5052162;28;20193;-68
2022/07/02 06:02:42;;;;;;;14.50;13.80;;;28.70;1.10;;;;;;5052371;28;20247;-69
2022/07/02 06:07:52;;;;;;;15.63;15.03;;;30.60;1.00;;;;;;5052352;28;20217;-68
2022/07/02 06:10:18;;;;;;;15.90;15.20;;;32.10;1.00;;;;;;5052217;28;20421;-69
2022/07/02 06:12:49;;;;;;;15.40;14.80;;;32.70;1.00;;;;;;5051981;28;20174;-69
2022/07/02 06:15:15;;;;;;;16.43;15.60;;;33.10;1.00;;;;;;5052265;28;20472;-69
2022/07/02 06:17:41;;;;;;;16.40;15.10;;;33.80;1.00;;;;;;5052447;28;20937;-69
2022/07/02 06:20:07;;;;;;;16.23;15.43;;;34.70;1.00;;;;;;5051942;28;20405;-70
2022/07/02 06:22:33;;;;;;;14.57;14.07;;;35.10;1.00;;;;;;5050874;28;20178;-70
2022/07/02 06:24:59;;;;;;;15.20;14.60;;;34.90;1.00;;;;;;5052146;28;20440;-69
2022/07/02 06:27:24;;;;;;;15.87;15.27;;;35.70;1.00;;;;;;5052321;28;20290;-69
2022/07/02 06:29:50;;;;;;;16.33;15.63;;;36.30;1.00;;;;;;5051917;28;20479;-68
2022/07/02 06:32:16;;;;;;;16.20;15.40;;;36.50;1.00;;;;;;5050920;28;20261;-69
2022/07/02 06:34:43;;;;;;;15.73;15.03;;;35.80;1.00;;;;;;5052139;28;20202;-69
2022/07/02 06:37:09;;;;;;;15.80;15.20;;;34.40;1.00;;;;;;5052241;28;20429;-68
2022/07/02 06:39:34;;;;;;;15.70;15.00;;;34.70;1.00;;;;;;5051967;28;20785;-69
2022/07/02 06:44:45;;;;;;;15.97;15.37;;;;;;;;;;5052344;28;20212;-70
2022/07/02 06:47:10;;;;;;;15.73;15.13;;;32.20;1.00;;;;;;5052181;28;20822;-70
2022/07/02 06:49:36;;;;;;;15.43;14.83;;;28.50;1.00;;;;;;5050162;28;21164;-71
2022/07/02 06:52:02;;;;;;;15.20;14.60;;;30.50;1.00;;;;;;5053085;28;20179;-70
2022/07/02 06:54:27;;;;;;;15.13;14.53;;;28.40;1.00;;;;;;5050399;28;20194;-70
2022/07/02 06:56:53;;;;;;;15.33;14.43;;;27.50;2.40;;;;;;5051938;28;20523;-69
2022/07/02 06:59:18;;;;;;;15.40;14.70;;;27.60;2.10;;;;;;5051890;28;20548;-70
2022/07/02 07:01:44;;;;;;;14.80;14.10;;;28.00;2.30;;;;;;5052112;28;20183;-70
2022/07/02 07:04:10;;;;;;;14.70;14.10;;;27.20;2.80;;;;;;5051504;28;20214;-70
2022/07/02 07:06:36;;;;;;;14.33;13.63;;;27.10;2.80;;;;;;5051851;28;20174;-70
2022/07/02 07:09:02;;;;;;;12.87;12.37;;;25.50;4.50;;;;;;5048585;28;20189;-69
2022/07/02 07:11:27;;;;;;;13.27;12.73;;;24.40;6.70;;;;;;5057189;28;20427;-69
2022/07/02 07:14:06;;;;;;;12.93;12.40;;;25.40;6.00;;;;;;5071014;28;20891;-70
2022/07/02 07:16:34;;;;;;;12.43;12.03;;;24.40;6.00;;;;;;5072013;28;20639;-69
2022/07/02 07:19:07;;;;;;;12.60;12.20;;;24.80;6.20;;;;;;5071286;28;20485;-69
2022/07/02 07:21:38;;;;;;;11.93;11.47;;;25.40;5.80;;;;;;5071051;28;20934;-68
2022/07/02 07:24:08;;;;;;;12.50;12.00;;;23.10;7.50;;;;;;5071538;28;20428;-67
2022/07/02 07:26:35;;;;;;;13.60;13.10;;;24.30;7.70;;;;;;5076093;28;20439;-69
2022/07/02 07:29:05;;;;;;;12.67;12.03;;;26.80;5.60;;;;;;5075259;28;20968;-68
2022/07/02 07:31:41;;;;;;;13.00;12.40;;;25.10;5.30;;;;;;5075515;28;20412;-68
2022/07/02 07:34:08;;;;;;;13.90;13.40;;;24.10;8.00;;;;;;5075607;28;20441;-68
2022/07/02 07:36:34;;;;;;;12.90;12.40;;;25.70;5.50;;;;;;5075483;28;20868;-68
2022/07/02 07:39:02;;;;;;;13.67;13.17;;;25.60;6.20;;;;;;5075224;28;20458;-70
2022/07/02 07:41:32;;;;;;;14.90;14.30;;;27.60;3.30;;;;;;5058814;28;20859;-69
2022/07/02 07:44:01;;;;;;;14.13;13.63;;;29.60;1.20;;;;;;5054874;28;20436;-70
2022/07/02 07:46:28;;;;;;;15.80;15.10;;;30.50;1.00;;;;;;5049867;28;20418;-69
2022/07/02 07:48:58;;;;;;;15.43;14.60;;;31.80;1.00;;;;;;5034783;28;20418;-69
2022/07/02 07:51:25;;;;;;;15.20;14.60;;;32.90;1.00;;;;;;5035102;28;20417;-71
2022/07/02 07:53:51;;;;;;;14.70;14.10;;;33.90;1.00;;;;;;5035150;28;20928;-70
2022/07/02 07:56:20;;;;;;;15.37;14.77;;;34.50;1.00;;;;;;5034858;28;20461;-69
2022/07/02 07:58:46;;;;;;;14.60;14.10;;;34.90;3.70;;;;;;5034831;28;20421;-69
2022/07/02 08:01:13;;;;;;;14.30;13.80;;;;;;;;;;5050562;28;20556;-68
2022/07/02 08:03:41;;;;;;;14.20;13.70;;;35.60;1.00;;;;;;5053008;28;20475;-68
2022/07/02 08:06:17;;;;;;;;;;;;;;;;;;;;;
2022/07/02 08:08:43;;;;;;;14.50;14.00;;;35.60;1.00;;;;;;5053411;28;20435;-70
2022/07/02 08:11:09;;;;;;;15.10;14.50;;;35.00;1.00;;;;;;5054363;28;20493;-69
2022/07/02 08:13:35;;;;;;;14.60;14.00;;;35.00;1.00;;;;;;5053092;28;20531;-70
2022/07/02 08:16:01;;;;;;;15.50;14.80;;;34.20;1.00;;;;;;5052466;28;21074;-71
2022/07/02 08:18:27;;;;;;;14.73;14.23;;;33.70;1.00;;;;;;5054008;28;20496;-73
2022/07/02 08:20:53;;;;;;;15.10;14.50;;;33.90;1.00;;;;;;5052954;28;20513;-69
2022/07/02 08:23:19;;;;;;;14.10;13.60;;;33.90;1.00;;;;;;5053991;28;20969;-70
2022/07/02 08:25:45;;;;;;;14.80;14.30;;;34.00;1.00;;;;;;5053855;28;20515;-70
2022/07/02 08:28:13;;;;;;;15.07;14.57;;;34.00;1.00;;;;;;5053940;28;20183;-71
2022/07/02 08:30:39;;;;;;;14.80;14.30;;;33.40;1.00;;;;;;5053047;28;20472;-70
2022/07/02 08:33:05;;;;;;;17.00;16.10;;;33.30;1.00;;;;;;5054103;28;20468;-70
2022/07/02 08:35:31;;;;;;;15.10;14.60;;;33.10;1.00;;;;;;5052938;28;20520;-70
2022/07/02 08:37:57;;;;;;;14.60;14.10;;;33.10;1.00;;;;;;5052980;28;20459;-70
2022/07/02 08:40:29;;;;;;;15.27;14.70;;;32.80;1.00;;;;;;5053914;28;20420;-70
2022/07/02 08:42:58;;;;;;;15.40;14.90;;;32.40;1.00;;;;;;5054053;28;20462;-71
2022/07/02 08:45:29;;;;;;;16.53;15.50;;;32.40;1.00;;;;;;5053800;28;20516;-71
2022/07/02 08:47:57;;;;;;;15.23;14.73;;;32.10;1.00;;;;;;5053855;28;20417;-67
2022/07/02 08:50:24;;;;;;;15.00;14.50;;;32.00;1.00;;;;;;5052302;28;20436;-70
2022/07/02 08:52:59;;;;;;;15.20;14.70;;;31.30;1.00;;;;;;5053689;28;20928;-70
2022/07/02 08:55:28;;;;;;;15.40;14.60;;;30.30;1.00;;;;;;5052127;28;20526;-70
2022/07/02 08:57:58;;;;;;;14.50;14.00;;;29.90;1.00;;;;;;5052227;28;20435;-69
2022/07/02 09:00:32;;;;;;;15.60;15.00;;;29.80;1.00;;;;;;5053096;28;20432;-69
2022/07/02 09:02:59;;;;;;;14.53;14.03;;;29.50;1.00;;;;;;5032125;28;20434;-70
2022/07/02 09:05:27;;;;;;;14.50;14.00;;;28.90;1.00;;;;;;5033585;28;20421;-70
2022/07/02 09:07:57;;;;;;;15.07;14.57;;;28.20;1.00;;;;;;5033459;28;20909;-71
2022/07/02 09:10:30;;;;;;;14.50;14.00;;;27.60;1.00;;;;;;5035524;28;20514;-69
2022/07/02 09:12:56;;;;;;;14.27;13.57;;;;;;;;;;5053461;28;20420;-70
2022/07/02 09:15:22;;;;;;;14.27;13.77;;;26.40;1.00;;;;;;5053223;28;20453;-69
2022/07/02 09:17:48;;;;;;;14.40;13.70;;;26.00;1.00;;;;;;5053085;28;20440;-69
2022/07/02 09:20:13;;;;;;;14.70;14.20;;;25.70;1.00;;;;;;5052546;28;20409;-69
2022/07/02 09:22:41;;;;;;;14.03;13.53;;;25.10;1.00;;;;;;5053088;28;20179;-70
2022/07/02 09:25:18;;;;;;;14.23;13.73;;;25.00;1.00;;;;;;5053002;28;20269;-71
2022/07/02 09:27:45;;;;;;;13.70;13.20;;;24.60;1.00;;;;;;5052867;28;20446;-71
2022/07/02 09:30:14;;;;;;;13.50;13.00;;;24.40;1.00;;;;;;5053383;28;20480;-69
2022/07/02 09:32:45;;;;;;;13.37;12.87;;;24.30;1.00;;;;;;5051668;28;20498;-70
2022/07/02 09:35:21;;;;;;;13.30;12.80;;;24.30;1.00;;;;;;5051546;28;20473;-68
2022/07/02 09:37:48;;;;;;;12.83;12.40;;;24.20;1.00;;;;;;5052628;28;20416;-69
2022/07/02 09:40:15;;;;;;;13.90;13.40;;;24.00;1.00;;;;;;5052543;28;20413;-70
2022/07/02 09:42:46;;;;;;;13.50;12.90;;;23.60;1.00;;;;;;5052254;28;20507;-71
2022/07/02 09:45:13;;;;;;;13.37;12.87;;;23.70;1.00;;;;;;5052155;28;20428;-70
2022/07/02 09:47:49;;;;;;;12.60;12.20;;;23.60;1.00;;;;;;5052709;28;20417;-68
2022/07/02 09:50:17;;;;;;;12.53;12.13;;;23.70;1.00;;;;;;5032716;28;20531;-69
2022/07/02 09:52:56;;;;;;;13.10;12.70;;;23.60;1.00;;;;;;5033071;28;20446;-69
2022/07/02 09:55:28;;;;;;;13.53;13.03;;;23.60;1.00;;;;;;5033008;28;20520;-69
2022/07/02 09:57:59;;;;;;;13.53;13.03;;;23.60;1.00;;;;;;5039088;28;20499;-69
2022/07/02 10:00:26;;;;;;;13.43;12.93;;;23.50;1.00;;;;;;5051975;28;20508;-70
2022/07/02 10:02:56;;;;;;;12.47;12.07;;;23.50;1.00;;;;;;5054328;28;20475;-69
2022/07/02 10:05:33;;;;;;;12.63;12.23;;;23.50;1.00;;;;;;5047359;23;21056;-69
2022/07/02 10:08:02;;;;;;;13.03;12.53;;;23.50;1.00;;;;;;5032030;28;20429;-69
2022/07/02 10:10:39;;;;;;;13.50;13.00;;;23.60;1.00;;;;;;5032402;28;20410;-70
2022/07/02 10:13:10;;;;;;;13.17;12.73;;;23.70;1.00;;;;;;5032270;28;20512;-70
2022/07/02 10:15:39;;;;;;;13.43;12.87;;;23.70;1.00;;;;;;5012519;28;20458;-69
2022/07/02 10:18:05;;;;;;;12.80;12.40;;;23.70;1.00;;;;;;5012161;28;20423;-70
2022/07/02 10:20:32;;;;;;;13.00;12.50;;;23.70;1.00;;;;;;5012722;28;20414;-71
2022/07/02 10:23:03;;;;;;;12.83;12.43;;;23.70;1.00;;;;;;5012129;28;20411;-70
2022/07/02 10:25:30;;;;;;;13.73;13.20;;;23.70;1.00;;;;;;5011924;28;20454;-70
2022/07/02 10:27:56;;;;;;;12.83;12.40;;;23.60;1.00;;;;;;5012096;28;20789;-70
2022/07/02 10:30:32;;;;;;;13.50;13.00;;;23.70;1.00;;;;;;5012418;28;20422;-71
2022/07/02 10:33:36;;;;;;;12.70;12.30;;;23.70;1.00;;;;;;5012065;28;20526;-70
2022/07/02 10:36:03;;;;;;;13.47;12.97;;;23.80;1.00;;;;;;5012510;28;20896;-70
2022/07/02 10:38:37;;;;;;;13.87;13.27;;;23.90;1.00;;;;;;5012051;28;20418;-70
2022/07/02 10:41:03;;;;;;;13.03;12.53;;;23.90;1.00;;;;;;5012531;28;20417;-70
2022/07/02 10:43:33;;;;;;;13.13;12.63;;;23.90;1.00;;;;;;5012132;28;20411;-70
2022/07/02 10:46:09;;;;;;;13.00;12.50;;;23.90;1.00;;;;;;5012194;28;20169;-70
2022/07/02 10:48:49;;;;;;;12.97;12.47;;;24.00;1.00;;;;;;5011674;28;20948;-70
2022/07/02 10:51:19;;;;;;;12.80;12.40;;;24.10;1.00;;;;;;5001873;28;20809;-70
2022/07/02 10:53:49;;;;;;;13.10;12.60;;;24.10;1.00;;;;;;5011970;28;20434;-70
2022/07/02 10:56:15;;;;;;;12.90;12.40;;;24.10;1.00;;;;;;5012028;28;20459;-70
2022/07/02 10:58:40;;;;;;;13.37;12.87;;;24.20;1.00;;;;;;5010134;28;20785;-70
2022/07/02 11:01:14;;;;;;;13.43;12.93;;;24.30;1.00;;;;;;5013759;28;20651;-70
2022/07/02 11:03:59;;;;;;;14.03;13.37;;;24.30;1.00;;;;;;5015888;28;20196;-71
2022/07/02 11:06:27;;;;;;;13.20;12.80;;;24.30;1.00;;;;;;5016893;28;20487;-69
2022/07/02 11:09:02;;;;;;;12.07;11.67;;;24.30;1.00;;;;;;5015971;28;20419;-69
2022/07/02 11:11:36;;;;;;;13.00;12.50;;;24.40;1.00;;;;;;5016308;28;20778;-69
2022/07/02 11:14:05;;;;;;;14.10;13.10;;;24.30;1.00;;;;;;5016279;28;20526;-70
2022/07/02 11:16:40;;;;;;;12.27;11.67;;;24.20;1.00;;;;;;5016673;28;20454;-69
2022/07/02 11:19:17;;;;;;;12.50;12.00;;;24.20;1.00;;;;;;5015599;28;20517;-70
2022/07/02 11:21:42;;;;;;;12.30;11.80;;;24.10;1.00;;;;;;5015984;28;20446;-69
2022/07/02 11:24:10;;;;;;;11.80;11.40;;;24.00;1.00;;;;;;5015530;28;20876;-69
2022/07/02 11:26:39;;;;;;;12.27;11.87;;;24.00;1.00;;;;;;5015507;28;20558;-69
2022/07/02 11:29:05;;;;;;;12.23;11.83;;;23.90;1.00;;;;;;5014833;28;20461;-69
2022/07/02 11:31:34;;;;;;;12.07;11.67;;;23.90;1.00;;;;;;5015392;28;20779;-69
2022/07/02 11:34:00;;;;;;;12.47;12.00;;;24.00;1.00;;;;;;5013926;28;20442;-69
2022/07/02 11:36:26;;;;;;;12.70;12.30;;;24.00;1.00;;;;;;5015315;28;20462;-69
2022/07/02 11:38:53;;;;;;;12.23;11.83;;;23.90;1.00;;;;;;5014961;28;20168;-69
2022/07/02 11:41:22;;;;;;;12.60;12.20;;;23.90;1.00;;;;;;5015277;28;20421;-69
2022/07/02 11:43:56;;;;;;;11.90;11.50;;;23.90;1.00;;;;;;5015097;28;20439;-69
2022/07/02 11:46:25;;;;;;;12.67;12.17;;;23.80;1.00;;;;;;5015502;28;20446;-69
2022/07/02 11:48:51;;;;;;;12.23;11.83;;;23.80;1.00;;;;;;5015166;28;20804;-69
2022/07/02 11:51:21;;;;;;;12.63;11.97;;;23.80;1.00;;;;;;5015041;28;20501;-69
2022/07/02 11:54:02;;;;;;;12.20;11.70;;;23.90;1.00;;;;;;5014514;28;20439;-69
2022/07/02 11:56:31;;;;;;;11.77;11.37;;;24.00;1.00;;;;;;5015200;28;21062;-69
2022/07/02 11:58:56;;;;;;;11.70;11.30;;;24.10;1.00;;;;;;5046393;28;20426;-69
2022/07/02 12:01:29;;;;;;;11.23;10.83;;;24.20;1.00;;;;;;5014545;28;20419;-69
2022/07/02 12:03:57;;;;;;;11.90;11.47;;;24.20;1.00;;;;;;5014459;28;20200;-69
2022/07/02 12:06:26;;;;;;;11.80;11.30;;;24.20;1.10;;;;;;5012511;28;20433;-69
2022/07/02 12:08:53;;;;;;;11.50;11.10;;;24.20;1.00;;;;;;5009701;28;20457;-69
2022/07/02 12:11:20;;;;;;;11.70;11.30;;;24.10;1.00;;;;;;5014539;28;20442;-68
2022/07/02 12:13:46;;;;;;;11.50;11.10;;;24.00;1.00;;;;;;5012375;28;20446;-69
2022/07/02 12:16:14;;;;;;;12.40;11.80;;;24.10;1.10;;;;;;5014159;28;20456;-68
2022/07/02 12:18:40;;;;;;;11.83;11.43;;;24.10;1.00;;;;;;5013577;28;20435;-69
2022/07/02 12:21:10;;;;;;;11.80;11.40;;;24.20;1.10;;;;;;5014395;28;20510;-69
2022/07/02 12:23:43;;;;;;;11.87;11.47;;;;;;;;;;5014156;28;20446;-68
2022/07/02 12:26:09;;;;;;;11.87;11.47;;;24.30;1.00;;;;;;5013965;28;20430;-69
2022/07/02 12:31:19;;;;;;;12.00;11.60;;;24.30;1.20;;;;;;5014530;28;20190;-68
2022/07/02 12:33:55;;;;;;;12.40;11.90;;;24.30;1.90;;;;;;5014044;28;20890;-71
2022/07/02 12:36:21;;;;;;;11.70;11.30;;;24.40;1.30;;;;;;5014200;28;20196;-71
2022/07/02 12:38:47;;;;;;;11.87;11.20;;;24.40;1.30;;;;;;5013989;28;20426;-73
2022/07/02 12:41:12;;;;;;;11.90;11.50;;;24.40;1.60;;;;;;5013969;28;20759;-73
2022/07/02 12:43:38;;;;;;;11.67;11.27;;;24.30;1.20;;;;;;5013005;28;20200;-73
2022/07/02 12:46:07;;;;;;;12.57;11.70;;;24.40;1.30;;;;;;5014084;28;20176;-72
2022/07/02 12:48:43;;;;;;;12.40;11.80;;;24.40;1.30;;;;;;5013413;28;20223;-73
2022/07/02 12:51:10;;;;;;;12.20;11.80;;;24.50;1.00;;;;;;5014328;28;20433;-74
2022/07/02 12:53:35;;;;;;;11.60;11.10;;;24.50;1.00;;;;;;5014337;28;20442;-71
2022/07/02 12:56:03;;;;;;;11.50;11.10;;;24.50;1.00;;;;;;4996366;28;20450;-72